createdAt,value
2019-05-10T00:00:19.217Z,44.92
2019-05-10T00:03:08.423Z,44.82
2019-05-10T00:05:57.875Z,44.78
2019-05-10T00:08:47.083Z,44.59
2019-05-10T00:11:39.369Z,44.96
2019-05-10T00:14:13.779Z,45.08
2019-05-10T00:16:45.235Z,45.13
2019-05-10T00:19:17.237Z,45.17
2019-05-10T00:21:48.569Z,45.33
2019-05-10T00:24:20.996Z,45.16
2019-05-10T00:26:52.380Z,45.03
2019-05-10T00:29:23.700Z,45.09
2019-05-10T00:31:55.397Z,44.90
2019-05-10T00:34:26.856Z,45.00
2019-05-10T00:36:58.295Z,44.99
2019-05-10T00:39:29.752Z,45.04
2019-05-10T00:42:01.309Z,45.15
2019-05-10T00:44:32.763Z,45.07
2019-05-10T00:47:04.429Z,45.04
2019-05-10T00:49:37.103Z,44.97
2019-05-10T00:52:08.549Z,45.16
2019-05-10T00:54:40.218Z,45.00
2019-05-10T00:57:11.682Z,44.91
2019-05-10T00:59:42.793Z,45.00
2019-05-10T01:02:14.379Z,44.75
2019-05-10T01:04:45.843Z,44.72
2019-05-10T01:07:17.171Z,44.88
2019-05-10T01:09:48.751Z,44.79
2019-05-10T01:12:21.329Z,44.69
2019-05-10T01:14:52.795Z,44.80
2019-05-10T01:17:24.175Z,44.85
2019-05-10T01:19:56.119Z,44.92
2019-05-10T01:22:27.360Z,44.91
2019-05-10T01:24:58.812Z,45.03
2019-05-10T01:27:29.971Z,45.00
2019-05-10T01:30:01.734Z,45.00
2019-05-10T01:32:33.427Z,45.07
2019-05-10T01:35:06.346Z,45.12
2019-05-10T01:37:37.534Z,45.17
2019-05-10T01:40:08.787Z,44.99
2019-05-10T01:42:40.252Z,45.14
2019-05-10T01:45:12.413Z,45.25
2019-05-10T01:47:43.752Z,45.41
2019-05-10T01:50:15.006Z,45.42
2019-05-10T01:52:46.612Z,45.46
2019-05-10T01:55:18.277Z,45.63
2019-05-10T01:57:49.888Z,45.65
2019-05-10T02:00:21.364Z,45.68
2019-05-10T02:02:55.626Z,45.67
2019-05-10T02:05:27.650Z,45.80
2019-05-10T02:07:59.191Z,45.58
2019-05-10T02:10:30.643Z,45.76
2019-05-10T02:13:02.313Z,45.76
2019-05-10T02:15:33.686Z,45.94
2019-05-10T02:18:05.727Z,46.13
2019-05-10T02:20:37.494Z,46.16
2019-05-10T02:23:09.150Z,46.25
2019-05-10T02:25:40.504Z,46.24
2019-05-10T02:28:11.945Z,46.28
2019-05-10T02:30:43.821Z,46.24
2019-05-10T02:33:15.576Z,46.27
2019-05-10T02:35:47.551Z,46.35
2019-05-10T02:38:19.603Z,46.32
2019-05-10T02:40:51.588Z,46.32
2019-05-10T02:43:23.325Z,46.29
2019-05-10T02:45:55.227Z,46.24
2019-05-10T02:48:26.908Z,46.46
2019-05-10T02:50:59.066Z,46.35
2019-05-10T02:53:30.705Z,46.11
2019-05-10T02:56:03.891Z,46.29
2019-05-10T02:58:35.450Z,46.34
2019-05-10T03:01:06.927Z,46.42
2019-05-10T03:03:38.499Z,46.29
2019-05-10T03:06:10.280Z,46.14
2019-05-10T03:08:52.632Z,46.18
2019-05-10T03:11:24.255Z,46.14
2019-05-10T03:13:55.868Z,45.95
2019-05-10T03:16:27.822Z,46.01
2019-05-10T03:18:59.708Z,45.94
2019-05-10T03:21:31.262Z,45.75
2019-05-10T03:24:04.434Z,45.87
2019-05-10T03:26:50.473Z,45.81
2019-05-10T03:29:09.397Z,46.15
2019-05-10T03:31:40.965Z,46.01
2019-05-10T03:34:12.351Z,46.11
2019-05-10T03:36:43.786Z,46.25
2019-05-10T03:39:15.665Z,45.89
2019-05-10T03:41:47.073Z,45.75
2019-05-10T03:44:18.701Z,45.95
2019-05-10T03:46:50.445Z,45.67
2019-05-10T03:49:21.765Z,45.39
2019-05-10T03:51:53.289Z,45.43
2019-05-10T03:54:25.803Z,45.51
2019-05-10T03:57:12.358Z,45.55
2019-05-10T03:59:30.733Z,45.65
2019-05-10T04:02:02.346Z,45.60
2019-05-10T04:04:34.160Z,45.49
2019-05-10T04:07:05.722Z,45.76
2019-05-10T04:09:36.971Z,45.75
2019-05-10T04:12:10.172Z,45.63
2019-05-10T04:14:41.687Z,45.67
2019-05-10T04:17:13.637Z,45.63
2019-05-10T04:19:45.043Z,45.69
2019-05-10T04:22:16.740Z,46.16
2019-05-10T04:24:49.238Z,46.31
2019-05-10T04:27:31.542Z,46.52
2019-05-10T04:29:54.448Z,46.33
2019-05-10T04:32:26.305Z,45.62
2019-05-10T04:34:57.967Z,45.62
2019-05-10T04:37:29.583Z,46.35
2019-05-10T04:40:01.286Z,46.09
2019-05-10T04:42:32.542Z,45.67
2019-05-10T04:45:04.496Z,45.32
2019-05-10T04:47:35.828Z,45.32
2019-05-10T04:50:08.254Z,44.90
2019-05-10T04:52:39.884Z,44.75
2019-05-10T04:55:12.104Z,44.98
2019-05-10T04:57:50.297Z,45.35
2019-05-10T05:00:16.804Z,44.87
2019-05-10T05:02:48.276Z,44.87
2019-05-10T05:05:19.709Z,45.20
2019-05-10T05:07:51.159Z,45.53
2019-05-10T05:10:23.222Z,45.56
2019-05-10T05:12:54.775Z,46.66
2019-05-10T05:15:26.039Z,46.66
2019-05-10T05:17:57.388Z,46.68
2019-05-10T05:20:28.862Z,46.60
2019-05-10T05:23:00.498Z,46.76
2019-05-10T05:25:35.158Z,46.56
2019-05-10T05:28:08.085Z,46.25
2019-05-10T05:30:38.814Z,46.78
2019-05-10T05:33:10.484Z,46.78
2019-05-10T05:35:42.063Z,45.95
2019-05-10T05:38:14.137Z,45.95
2019-05-10T05:40:47.022Z,44.95
2019-05-10T05:43:18.360Z,44.95
2019-05-10T05:45:50.145Z,45.44
2019-05-10T05:48:23.122Z,44.99
2019-05-10T05:50:54.559Z,44.45
2019-05-10T05:53:26.213Z,44.65
2019-05-10T05:55:57.229Z,44.09
2019-05-10T05:58:28.912Z,43.34
2019-05-10T06:01:00.464Z,42.95
2019-05-10T06:03:31.716Z,42.36
2019-05-10T06:06:15.312Z,41.64
2019-05-10T06:08:36.777Z,41.73
2019-05-10T06:11:09.298Z,41.12
2019-05-10T06:13:40.702Z,40.62
2019-05-10T06:16:14.500Z,40.55
2019-05-10T06:18:47.424Z,39.25
2019-05-10T06:21:24.521Z,39.27
2019-05-10T06:23:51.110Z,38.74
2019-05-10T06:26:28.358Z,38.56
2019-05-10T06:28:59.801Z,38.88
2019-05-10T06:31:28.537Z,38.39
2019-05-10T06:33:59.894Z,38.04
2019-05-10T06:36:31.927Z,37.61
2019-05-10T06:39:04.040Z,36.74
2019-05-10T06:41:35.264Z,37.11
2019-05-10T06:44:07.768Z,36.76
2019-05-10T06:46:39.223Z,37.00
2019-05-10T06:49:12.205Z,36.49
2019-05-10T06:51:49.018Z,36.76
2019-05-10T06:54:17.294Z,37.23
2019-05-10T06:56:48.892Z,37.20
2019-05-10T06:59:25.017Z,37.02
2019-05-10T07:01:54.760Z,35.84
2019-05-10T07:04:27.217Z,36.12
2019-05-10T07:07:00.873Z,36.02
2019-05-10T07:10:00.538Z,36.04
2019-05-10T07:12:09.402Z,36.16
2019-05-10T07:14:45.608Z,37.38
2019-05-10T07:17:12.850Z,35.33
2019-05-10T07:19:53.423Z,34.92
2019-05-10T07:22:21.642Z,35.05
2019-05-10T07:24:57.187Z,35.16
2019-05-10T07:27:26.285Z,34.79
2019-05-10T07:29:57.927Z,35.05
2019-05-10T07:32:29.736Z,34.98
2019-05-10T07:35:02.293Z,35.10
2019-05-10T07:37:33.728Z,35.86
2019-05-10T07:40:07.932Z,36.04
2019-05-10T07:42:45.169Z,36.47
2019-05-10T07:45:12.886Z,36.88
2019-05-10T07:47:44.548Z,36.75
2019-05-10T07:50:16.066Z,37.35
2019-05-10T07:52:48.061Z,36.77
2019-05-10T07:55:28.072Z,35.84
2019-05-10T07:57:53.192Z,36.12
2019-05-10T08:00:25.573Z,36.52
2019-05-10T08:03:07.560Z,36.38
2019-05-10T08:05:30.133Z,36.87
2019-05-10T08:08:01.624Z,36.08
2019-05-10T08:10:33.529Z,36.58
2019-05-10T08:13:05.125Z,36.02
2019-05-10T08:15:38.336Z,35.59
2019-05-10T08:18:09.959Z,34.68
2019-05-10T08:20:50.426Z,36.30
2019-05-10T08:23:17.934Z,36.41
2019-05-10T08:25:47.808Z,35.17
2019-05-10T08:28:19.191Z,34.29
2019-05-10T08:30:57.788Z,34.42
2019-05-10T08:33:23.991Z,34.22
2019-05-10T08:36:00.773Z,34.55
2019-05-10T08:38:28.534Z,33.59
2019-05-10T08:41:02.518Z,33.58
2019-05-10T08:43:38.890Z,32.82
2019-05-10T08:46:06.479Z,32.61
2019-05-10T08:48:43.360Z,32.28
2019-05-10T08:51:12.515Z,32.46
2019-05-10T08:53:47.181Z,32.68
2019-05-10T08:56:21.732Z,31.67
2019-05-10T08:58:49.798Z,31.45
2019-05-10T09:01:29.471Z,31.66
2019-05-10T09:04:00.698Z,30.64
2019-05-10T09:06:28.453Z,30.62
2019-05-10T09:09:03.171Z,30.27
2019-05-10T09:11:33.216Z,29.64
2019-05-10T09:14:05.179Z,29.41
2019-05-10T09:16:43.515Z,28.98
2019-05-10T09:19:09.515Z,28.41
2019-05-10T09:21:49.309Z,28.95
2019-05-10T09:24:13.856Z,29.25
2019-05-10T09:26:46.834Z,29.55
2019-05-10T09:29:18.772Z,29.67
2019-05-10T09:31:53.182Z,29.42
2019-05-10T09:34:26.089Z,29.09
2019-05-10T09:36:57.691Z,28.94
2019-05-10T09:39:29.140Z,28.88
2019-05-10T09:42:07.662Z,29.46
2019-05-10T09:44:33.687Z,30.74
2019-05-10T09:47:05.257Z,31.08
2019-05-10T09:49:36.701Z,31.20
2019-05-10T09:52:12.573Z,31.01
2019-05-10T09:54:41.147Z,30.68
2019-05-10T09:57:12.876Z,31.03
2019-05-10T09:59:44.362Z,31.44
2019-05-10T10:02:18.666Z,31.53
2019-05-10T10:04:49.476Z,31.13
2019-05-10T10:07:24.204Z,30.23
2019-05-10T10:09:53.967Z,29.38
2019-05-10T10:12:25.308Z,30.07
2019-05-10T10:14:56.759Z,30.21
2019-05-10T10:17:30.738Z,29.69
2019-05-10T10:20:01.095Z,30.08
2019-05-10T10:22:33.343Z,29.91
2019-05-10T10:25:07.395Z,30.67
2019-05-10T10:27:39.632Z,31.73
2019-05-10T10:30:17.836Z,31.60
2019-05-10T10:32:44.605Z,31.85
2019-05-10T10:35:20.954Z,31.30
2019-05-10T10:37:48.964Z,30.29
2019-05-10T10:40:21.491Z,29.93
2019-05-10T10:42:53.987Z,29.91
2019-05-10T10:45:27.591Z,29.62
2019-05-10T10:48:02.371Z,29.11
2019-05-10T10:50:31.525Z,29.12
2019-05-10T10:53:02.743Z,28.53
2019-05-10T10:55:37.084Z,28.97
2019-05-10T10:58:08.023Z,29.07
2019-05-10T11:00:39.466Z,28.80
2019-05-10T11:03:10.728Z,28.10
2019-05-10T11:05:41.981Z,27.59
2019-05-10T11:08:13.428Z,27.82
2019-05-10T11:10:44.780Z,28.17
2019-05-10T11:13:23.692Z,29.09
2019-05-10T11:15:51.535Z,30.28
2019-05-10T11:18:21.904Z,30.53
2019-05-10T11:20:54.189Z,31.42
2019-05-10T11:23:34.044Z,31.06
2019-05-10T11:25:58.113Z,30.84
2019-05-10T11:28:38.483Z,30.17
2019-05-10T11:31:03.162Z,28.86
2019-05-10T11:33:34.168Z,27.21
2019-05-10T11:36:08.869Z,26.09
2019-05-10T11:38:42.012Z,25.10
2019-05-10T11:41:20.694Z,24.12
2019-05-10T11:43:46.365Z,23.33
2019-05-10T11:46:17.410Z,22.91
2019-05-10T11:48:50.370Z,22.09
2019-05-10T11:51:21.755Z,21.87
2019-05-10T11:53:55.351Z,21.65
2019-05-10T11:56:27.722Z,20.97
2019-05-10T11:59:02.697Z,21.09
2019-05-10T12:01:34.014Z,21.07
2019-05-10T12:04:13.098Z,20.74
2019-05-10T12:06:49.483Z,22.50
2019-05-10T12:09:13.953Z,22.79
2019-05-10T12:11:51.616Z,23.10
2019-05-10T12:14:18.043Z,23.31
2019-05-10T12:16:54.236Z,23.00
2019-05-10T12:19:23.242Z,22.47
2019-05-10T12:21:55.987Z,21.58
2019-05-10T12:24:45.230Z,20.97
2019-05-10T12:27:25.321Z,21.71
2019-05-10T12:29:34.335Z,21.75
2019-05-10T12:32:05.585Z,22.19
2019-05-10T12:34:36.741Z,23.64
2019-05-10T12:37:08.617Z,23.53
2019-05-10T12:39:39.839Z,22.91
2019-05-10T12:42:14.411Z,21.94
2019-05-10T12:44:47.918Z,21.48
2019-05-10T12:47:17.624Z,21.61
2019-05-10T12:49:54.003Z,21.87
2019-05-10T12:52:27.732Z,22.07
2019-05-10T12:54:54.706Z,21.92
2019-05-10T12:57:26.664Z,22.21
2019-05-10T12:59:57.808Z,22.30
2019-05-10T13:02:29.267Z,23.67
2019-05-10T13:05:00.517Z,23.45
2019-05-10T13:07:36.444Z,22.76
2019-05-10T13:10:09.323Z,22.13
2019-05-10T13:12:44.345Z,22.43
2019-05-10T13:15:14.105Z,23.26
2019-05-10T13:17:50.421Z,24.18
2019-05-10T13:20:18.657Z,25.01
2019-05-10T13:22:51.025Z,24.21
2019-05-10T13:25:22.291Z,23.70
2019-05-10T13:27:53.819Z,23.46
2019-05-10T13:30:28.099Z,22.74
2019-05-10T13:32:58.964Z,21.81
2019-05-10T13:35:31.661Z,21.34
2019-05-10T13:38:06.230Z,20.51
2019-05-10T13:40:38.897Z,19.69
2019-05-10T13:43:09.089Z,20.88
2019-05-10T13:45:41.458Z,22.93
2019-05-10T13:48:13.983Z,24.18
2019-05-10T13:50:45.525Z,25.54
2019-05-10T13:53:20.937Z,26.12
2019-05-10T13:55:49.632Z,25.01
2019-05-10T13:58:20.892Z,24.47
2019-05-10T14:00:52.640Z,24.95
2019-05-10T14:03:23.823Z,25.82
2019-05-10T14:05:55.440Z,25.91
2019-05-10T14:08:26.989Z,26.66
2019-05-10T14:11:01.387Z,27.86
2019-05-10T14:13:35.851Z,28.17
2019-05-10T14:16:05.128Z,28.59
2019-05-10T14:18:37.203Z,28.63
2019-05-10T14:21:08.751Z,29.30
2019-05-10T14:23:40.611Z,27.35
2019-05-10T14:26:15.865Z,27.01
2019-05-10T14:28:47.403Z,27.50
2019-05-10T14:31:18.149Z,29.92
2019-05-10T14:34:14.020Z,31.64
2019-05-10T14:36:23.783Z,32.87
2019-05-10T14:38:56.465Z,33.09
2019-05-10T14:41:28.157Z,32.47
2019-05-10T14:43:59.800Z,31.78
2019-05-10T14:46:31.474Z,31.05
2019-05-10T14:49:09.835Z,32.03
2019-05-10T14:51:49.550Z,32.55
2019-05-10T14:54:09.767Z,33.42
2019-05-10T14:56:41.390Z,33.35
2019-05-10T14:59:12.905Z,33.58
2019-05-10T15:01:45.455Z,33.79
2019-05-10T15:04:20.194Z,33.87
2019-05-10T15:06:50.335Z,34.02
2019-05-10T15:09:24.188Z,34.16
2019-05-10T15:11:54.693Z,34.47
2019-05-10T15:14:26.019Z,34.65
2019-05-10T15:16:57.266Z,35.11
2019-05-10T15:19:31.335Z,35.39
2019-05-10T15:22:01.726Z,35.95
2019-05-10T15:24:32.955Z,35.92
2019-05-10T15:27:04.343Z,35.99
2019-05-10T15:29:35.875Z,36.55
2019-05-10T15:32:07.309Z,36.17
2019-05-10T15:34:38.667Z,35.84
2019-05-10T15:37:10.778Z,36.17
2019-05-10T15:39:42.077Z,36.28
2019-05-10T15:42:13.423Z,35.47
2019-05-10T15:44:44.917Z,35.59
2019-05-10T15:47:20.632Z,34.81
2019-05-10T15:49:54.749Z,34.25
2019-05-10T15:52:24.110Z,34.68
2019-05-10T15:54:55.602Z,34.06
2019-05-10T15:57:26.950Z,33.39
2019-05-10T15:59:59.210Z,32.67
2019-05-10T16:02:30.384Z,32.10
2019-05-10T16:05:01.838Z,30.76
2019-05-10T16:07:33.083Z,29.62
2019-05-10T16:10:05.377Z,28.82
2019-05-10T16:12:37.920Z,29.07
2019-05-10T16:15:13.792Z,29.78
2019-05-10T16:17:42.368Z,30.02
2019-05-10T16:20:14.735Z,29.68
2019-05-10T16:22:46.116Z,29.93
2019-05-10T16:25:17.231Z,30.68
2019-05-10T16:27:48.377Z,31.38
2019-05-10T16:30:20.308Z,31.99
2019-05-10T16:32:51.688Z,32.55
2019-05-10T16:35:22.943Z,33.47
2019-05-10T16:37:54.388Z,33.91
2019-05-10T16:40:25.877Z,34.62
2019-05-10T16:42:56.992Z,35.00
2019-05-10T16:45:28.303Z,35.27
2019-05-10T16:47:59.694Z,35.52
2019-05-10T16:50:33.685Z,35.85
2019-05-10T16:53:05.627Z,36.27
2019-05-10T16:55:40.669Z,36.80
2019-05-10T16:58:15.352Z,37.22
2019-05-10T17:00:46.381Z,37.58
2019-05-10T17:03:18.660Z,38.07
2019-05-10T17:05:53.600Z,38.64
2019-05-10T17:08:22.593Z,38.83
2019-05-10T17:10:54.146Z,39.29
2019-05-10T17:13:25.398Z,39.80
2019-05-10T17:15:56.659Z,39.87
2019-05-10T17:18:28.100Z,40.07
2019-05-10T17:20:59.647Z,40.28
2019-05-10T17:23:31.406Z,40.60
2019-05-10T17:26:02.972Z,40.80
2019-05-10T17:28:35.299Z,41.25
2019-05-10T17:31:08.166Z,41.25
2019-05-10T17:33:42.798Z,41.60
2019-05-10T17:36:14.540Z,42.06
2019-05-10T17:38:47.211Z,42.06
2019-05-10T17:41:24.850Z,42.57
2019-05-10T17:43:52.874Z,42.57
2019-05-10T17:46:24.535Z,42.55
2019-05-10T17:48:56.072Z,42.63
2019-05-10T17:51:27.712Z,42.65
2019-05-10T17:54:01.330Z,42.83
2019-05-10T17:56:38.721Z,43.08
2019-05-10T17:59:11.869Z,43.26
2019-05-10T18:01:40.143Z,43.49
2019-05-10T18:04:11.760Z,43.58
2019-05-10T18:06:43.253Z,43.58
2019-05-10T18:09:14.683Z,43.75
2019-05-10T18:11:46.222Z,44.04
2019-05-10T18:14:19.400Z,44.59
2019-05-10T18:16:50.968Z,44.89
2019-05-10T18:19:24.703Z,45.05
2019-05-10T18:22:00.796Z,45.47
2019-05-10T18:24:30.154Z,45.73
2019-05-10T18:27:01.797Z,45.89
2019-05-10T18:29:33.261Z,46.26
2019-05-10T18:32:04.949Z,46.29
2019-05-10T18:34:36.594Z,46.17
2019-05-10T18:37:08.044Z,46.09
2019-05-10T18:39:39.878Z,46.08
2019-05-10T18:42:11.437Z,46.11
2019-05-10T18:44:45.829Z,46.33
2019-05-10T18:47:16.287Z,46.52
2019-05-10T18:49:47.978Z,46.90
2019-05-10T18:52:20.454Z,47.15
2019-05-10T18:54:52.041Z,47.29
2019-05-10T18:57:23.954Z,47.28
2019-05-10T18:59:55.406Z,47.17
2019-05-10T19:02:28.096Z,47.22
2019-05-10T19:04:59.917Z,47.32
2019-05-10T19:07:31.810Z,47.18
2019-05-10T19:10:05.607Z,47.14
2019-05-10T19:12:38.063Z,47.01
2019-05-10T19:15:15.090Z,47.09
2019-05-10T19:17:45.988Z,47.10
2019-05-10T19:20:18.511Z,47.31
2019-05-10T19:22:50.094Z,47.28
2019-05-10T19:25:21.720Z,47.36
2019-05-10T19:27:53.473Z,47.45
2019-05-10T19:30:25.132Z,47.42
2019-05-10T19:32:58.137Z,47.42
2019-05-10T19:35:34.852Z,47.46
2019-05-10T19:38:02.461Z,47.34
2019-05-10T19:40:34.229Z,47.20
2019-05-10T19:43:06.592Z,46.87
2019-05-10T19:45:38.105Z,46.87
2019-05-10T19:48:09.299Z,46.79
2019-05-10T19:50:40.957Z,46.71
2019-05-10T19:53:12.589Z,46.70
2019-05-10T19:55:43.637Z,46.81
2019-05-10T19:58:14.900Z,46.96
2019-05-10T20:00:46.593Z,46.93
2019-05-10T20:03:18.143Z,47.13
2019-05-10T20:05:49.662Z,47.05
2019-05-10T20:08:21.215Z,46.98
2019-05-10T20:10:52.977Z,47.11
2019-05-10T20:13:24.449Z,47.34
2019-05-10T20:15:55.879Z,47.55
2019-05-10T20:18:27.332Z,47.71
2019-05-10T20:20:58.792Z,47.55
2019-05-10T20:23:30.443Z,47.61
2019-05-10T20:26:02.038Z,47.59
2019-05-10T20:28:33.354Z,47.66
2019-05-10T20:31:05.023Z,47.76
2019-05-10T20:33:36.467Z,47.89
2019-05-10T20:36:07.818Z,48.03
2019-05-10T20:38:39.076Z,48.28
2019-05-10T20:41:10.739Z,48.20
2019-05-10T20:43:42.486Z,48.44
2019-05-10T20:46:13.943Z,48.22
2019-05-10T20:48:45.800Z,48.36
2019-05-10T20:51:17.053Z,48.48
2019-05-10T20:53:48.506Z,48.56
2019-05-10T20:56:19.756Z,48.73
2019-05-10T20:58:51.208Z,48.95
2019-05-10T21:01:22.365Z,48.70
2019-05-10T21:03:53.505Z,48.82
2019-05-10T21:06:24.858Z,48.86
2019-05-10T21:08:56.426Z,48.81
2019-05-10T21:11:28.792Z,48.84
2019-05-10T21:14:00.256Z,48.62
2019-05-10T21:16:31.705Z,48.56
2019-05-10T21:19:03.080Z,48.49
2019-05-10T21:21:34.303Z,48.27
2019-05-10T21:24:06.093Z,48.27
2019-05-10T21:26:37.325Z,48.11
2019-05-10T21:29:08.990Z,48.04
2019-05-10T21:31:40.677Z,47.81
2019-05-10T21:34:12.432Z,47.89
2019-05-10T21:36:43.975Z,47.94
2019-05-10T21:39:15.419Z,47.67
2019-05-10T21:41:46.791Z,47.74
2019-05-10T21:44:18.146Z,47.54
2019-05-10T21:46:53.212Z,47.38
2019-05-10T21:49:22.475Z,47.21
2019-05-10T21:51:54.133Z,47.12
2019-05-10T21:54:26.510Z,46.91
2019-05-10T21:56:58.066Z,46.97
2019-05-10T21:59:29.420Z,46.88
2019-05-10T22:02:00.979Z,46.66
2019-05-10T22:04:32.235Z,46.52
2019-05-10T22:07:03.689Z,46.31
2019-05-10T22:09:35.871Z,46.29
2019-05-10T22:12:09.495Z,46.40
2019-05-10T22:14:40.821Z,46.34
2019-05-10T22:17:14.653Z,46.30
2019-05-10T22:19:46.566Z,46.32
2019-05-10T22:22:18.351Z,46.13
2019-05-10T22:24:50.225Z,46.24
2019-05-10T22:27:21.709Z,46.29
2019-05-10T22:29:53.150Z,46.05
2019-05-10T22:32:25.525Z,46.19
2019-05-10T22:34:57.311Z,46.22
2019-05-10T22:37:29.563Z,46.21
2019-05-10T22:40:01.018Z,46.13
2019-05-10T22:42:35.088Z,46.34
2019-05-10T22:45:06.797Z,46.24
2019-05-10T22:47:38.176Z,46.36
2019-05-10T22:50:09.407Z,46.41
2019-05-10T22:52:40.755Z,46.25
2019-05-10T22:55:13.650Z,46.12
2019-05-10T22:57:45.206Z,45.66
2019-05-10T23:00:16.776Z,45.78
2019-05-10T23:02:48.232Z,46.01
2019-05-10T23:05:19.783Z,46.28
2019-05-10T23:07:51.143Z,46.29
2019-05-10T23:10:23.613Z,45.99
2019-05-10T23:12:56.115Z,45.75
2019-05-10T23:15:27.682Z,45.41
2019-05-10T23:17:59.236Z,45.67
2019-05-10T23:20:31.305Z,45.86
2019-05-10T23:23:02.878Z,46.15
2019-05-10T23:25:34.820Z,46.41
2019-05-10T23:28:06.592Z,46.04
2019-05-10T23:30:38.471Z,45.98
2019-05-10T23:33:10.333Z,46.06
2019-05-10T23:35:42.004Z,46.12
2019-05-10T23:38:13.434Z,46.06
2019-05-10T23:40:44.895Z,46.05
2019-05-10T23:43:17.083Z,46.18
2019-05-10T23:45:48.688Z,45.40
2019-05-10T23:48:20.592Z,45.30
2019-05-10T23:50:52.164Z,45.19
2019-05-10T23:53:23.616Z,45.08
2019-05-10T23:55:55.171Z,45.05
2019-05-10T23:58:27.161Z,44.98
